Time;durP1;ratioP1;P1;durP2;ratioP2;P2;SDS_P1;SDS_P2;PMS_P1;PMS_P2;Temp;Humidity;BMP_temperature;BMP_pressure;BME280_temperature;BME280_humidity;BME280_pressure;Samples;Min_cycle;Max_cycle;Signal;HPM_P1;HPM_P2
2022/11/15 00:01:49;;;;;;;60.75;30.45;;;;;;;8.04;100.00;100848.31;5089887;28;20020;-32
2022/11/15 00:04:15;;;;;;;63.05;31.48;;;;;;;8.08;100.00;100844.28;5089568;28;20028;-29
2022/11/15 00:06:41;;;;;;;61.63;32.80;;;;;;;7.86;100.00;100843.34;5071386;28;20035;-29
2022/11/15 00:09:06;;;;;;;63.20;35.28;;;;;;;7.98;100.00;100839.25;5089856;28;20056;-29
2022/11/15 00:11:32;;;;;;;71.45;39.35;;;;;;;7.93;100.00;100835.50;5071218;28;20135;-36
2022/11/15 00:13:58;;;;;;;63.42;34.17;;;;;;;7.93;100.00;100848.78;5089713;28;20026;-28
2022/11/15 00:16:24;;;;;;;71.43;31.90;;;;;;;7.99;100.00;100851.53;5071290;28;20042;-28
2022/11/15 00:18:50;;;;;;;70.85;33.65;;;;;;;8.01;100.00;100844.19;5071333;28;20691;-32
2022/11/15 00:21:17;;;;;;;67.70;32.05;;;;;;;7.90;100.00;100841.97;5071271;28;20047;-28
2022/11/15 00:23:42;;;;;;;75.45;32.30;;;;;;;8.10;100.00;100847.59;5090004;28;20063;-31
2022/11/15 00:26:12;;;;;;;68.45;31.15;;;;;;;8.05;100.00;100839.34;5089779;28;20542;-30
2022/11/15 00:28:38;;;;;;;79.50;32.05;;;;;;;8.02;100.00;100843.19;5089949;28;20480;-28
2022/11/15 00:31:07;;;;;;;67.18;31.25;;;;;;;8.02;100.00;100835.22;5089878;28;20039;-28
2022/11/15 00:33:33;;;;;;;72.80;31.90;;;;;;;8.05;100.00;100834.03;5071105;28;20020;-28
2022/11/15 00:36:07;;;;;;;71.50;31.98;;;;;;;8.09;100.00;100822.03;5089457;28;20160;-32
2022/11/15 00:38:34;;;;;;;79.07;32.13;;;;;;;8.08;100.00;100824.88;5089065;28;20028;-32
2022/11/15 00:41:00;;;;;;;73.65;31.90;;;;;;;7.87;100.00;100805.19;5070894;28;20032;-29
2022/11/15 00:43:26;;;;;;;69.10;31.63;;;;;;;8.10;100.00;100814.88;5089599;28;20020;-27
2022/11/15 00:45:51;;;;;;;81.18;33.25;;;;;;;8.01;100.00;100814.97;5070573;28;20043;-28
2022/11/15 00:48:17;;;;;;;83.05;32.95;;;;;;;7.91;100.00;100793.19;5088805;28;20056;-30
2022/11/15 00:50:42;;;;;;;80.57;34.05;;;;;;;7.93;100.00;100804.44;5089013;28;20484;-28
2022/11/15 00:53:08;;;;;;;77.10;32.25;;;;;;;7.79;100.00;100802.63;5088927;28;20031;-29
2022/11/15 00:55:33;;;;;;;92.15;34.92;;;;;;;7.83;100.00;100809.22;5089074;28;20024;-27
2022/11/15 00:57:58;;;;;;;80.57;33.33;;;;;;;7.98;100.00;100796.75;5070806;28;20032;-34
2022/11/15 01:00:24;;;;;;;70.85;32.08;;;;;;;7.68;100.00;100773.84;5088292;28;20024;-29
2022/11/15 01:02:49;;;;;;;86.82;34.10;;;;;;;7.72;100.00;100783.09;5088816;28;20020;-29
2022/11/15 01:05:15;;;;;;;84.85;32.80;;;;;;;7.69;100.00;100780.81;5088729;28;20514;-29
2022/11/15 01:07:40;;;;;;;79.80;31.60;;;;;;;7.76;100.00;100790.50;5088565;28;20035;-29
2022/11/15 01:10:06;;;;;;;80.47;31.85;;;;;;;8.02;100.00;100792.72;5088413;28;20084;-30
2022/11/15 01:12:32;;;;;;;82.10;33.15;;;;;;;8.23;100.00;100793.78;5088469;28;20043;-31
2022/11/15 01:14:58;;;;;;;82.15;30.63;;;;;;;8.09;100.00;100791.97;5070509;28;20384;-31
2022/11/15 01:17:23;;;;;;;78.65;33.45;;;;;;;8.12;100.00;100791.63;5088536;28;20080;-28
2022/11/15 01:19:49;;;;;;;86.78;32.95;;;;;;;8.13;100.00;100772.00;5088455;28;20035;-28
2022/11/15 01:22:15;;;;;;;79.38;32.13;;;;;;;8.19;100.00;100797.81;5088280;28;20103;-33
2022/11/15 01:24:40;;;;;;;79.05;31.50;;;;;;;8.14;100.00;100789.59;5088368;28;20020;-30
2022/11/15 01:27:05;;;;;;;85.70;31.30;;;;;;;8.30;100.00;100797.38;5088480;28;20067;-28
2022/11/15 01:29:31;;;;;;;88.20;34.60;;;;;;;8.38;100.00;100786.63;5088223;28;20510;-31
2022/11/15 01:31:56;;;;;;;85.90;32.63;;;;;;;8.32;100.00;100795.34;5088396;28;20028;-30
2022/11/15 01:34:22;;;;;;;89.63;33.22;;;;;;;8.20;100.00;100767.59;5087926;28;20087;-28
2022/11/15 01:36:47;;;;;;;99.80;31.77;;;;;;;8.33;100.00;100789.00;5088427;28;20427;-27
2022/11/15 01:39:12;;;;;;;105.85;31.58;;;;;;;8.33;100.00;100783.69;5069482;28;20749;-28
2022/11/15 01:41:38;;;;;;;93.82;31.20;;;;;;;8.40;100.00;100779.28;5088206;28;20038;-28
2022/11/15 01:44:38;;;;;;;93.97;30.60;;;;;;;8.55;100.00;100775.78;5088231;28;20119;-29
2022/11/15 01:47:13;;;;;;;91.35;29.55;;;;;;;8.56;100.00;100778.28;5065900;28;20064;-31
2022/11/15 01:49:45;;;;;;;93.30;29.23;;;;;;;8.58;100.00;100770.09;5067593;28;20033;-30
2022/11/15 01:52:20;;;;;;;90.93;29.38;;;;;;;8.49;100.00;100771.22;5068097;28;20043;-31
2022/11/15 01:54:50;;;;;;;95.00;28.27;;;;;;;8.57;100.00;100779.09;5068109;28;20060;-29
2022/11/15 01:57:15;;;;;;;90.55;27.77;;;;;;;8.27;100.00;100752.53;5066195;28;20028;-29
2022/11/15 01:59:44;;;;;;;88.95;28.50;;;;;;;8.30;100.00;100773.44;5066038;28;20035;-29
2022/11/15 02:02:10;;;;;;;86.15;27.30;;;;;;;8.30;100.00;100781.41;5065687;28;20040;-38
2022/11/15 02:04:41;;;;;;;88.03;29.10;;;;;;;8.39;100.00;100777.63;5067892;28;20115;-28
2022/11/15 02:07:09;;;;;;;94.05;32.03;;;;;;;8.55;100.00;100773.13;5066028;28;20488;-28
2022/11/15 02:09:37;;;;;;;88.55;29.77;;;;;;;8.27;100.00;100757.84;5067049;28;20024;-29
2022/11/15 02:12:02;;;;;;;89.07;29.73;;;;;;;8.48;100.00;100774.88;5065656;28;20120;-29
2022/11/15 02:14:29;;;;;;;88.35;27.05;;;;;;;8.49;100.00;100761.41;5066625;28;20111;-29
2022/11/15 02:17:13;;;;;;;83.28;28.38;;;;;;;8.60;100.00;100768.91;5065808;28;20043;-29
2022/11/15 02:20:07;;;;;;;89.80;28.83;;;;;;;8.56;100.00;100777.44;5065712;28;20028;-30
2022/11/15 02:22:44;;;;;;;83.80;27.55;;;;;;;8.66;100.00;100772.63;5067006;28;20056;-30
2022/11/15 02:25:10;;;;;;;90.72;28.52;;;;;;;8.70;100.00;100757.94;5065765;28;20033;-28
2022/11/15 02:27:44;;;;;;;99.95;27.60;;;;;;;8.74;100.00;100772.50;5067191;28;20035;-29
2022/11/15 02:30:31;;;;;;;86.45;26.15;;;;;;;8.59;100.00;100772.56;5065574;28;20035;-37
2022/11/15 02:33:08;;;;;;;71.50;25.37;;;;;;;8.35;100.00;100765.72;5066925;28;20031;-29
2022/11/15 02:35:58;;;;;;;83.97;25.88;;;;;;;8.61;100.00;100769.72;5065761;28;20142;-32
2022/11/15 02:38:44;;;;;;;87.90;26.65;;;;;;;8.75;100.00;100766.19;5066871;28;20051;-31
2022/11/15 02:41:17;;;;;;;88.10;26.35;;;;;;;8.57;100.00;100741.88;5065440;28;20065;-28
2022/11/15 02:43:56;;;;;;;88.03;22.60;;;;;;;8.79;100.00;100766.63;5065443;28;20024;-29
2022/11/15 02:49:31;;;;;;;83.45;25.38;;;;;;;8.89;100.00;100769.81;5066898;28;20118;-29
2022/11/15 02:51:56;;;;;;;76.57;24.40;;;;;;;8.91;100.00;100753.63;5065262;28;20031;-28
2022/11/15 02:54:28;;;;;;;82.07;26.05;;;;;;;8.75;100.00;100744.91;5067021;28;20028;-29
2022/11/15 02:56:59;;;;;;;73.10;24.38;;;;;;;8.85;100.00;100755.25;5065424;28;20028;-28
2022/11/15 02:59:24;;;;;;;73.65;25.70;;;;;;;8.88;100.00;100759.34;5065945;28;20068;-28
2022/11/15 03:01:49;;;;;;;68.80;24.67;;;;;;;8.89;100.00;100766.31;5066538;28;20063;-29
2022/11/15 03:04:44;;;;;;;72.25;26.33;;;;;;;9.01;100.00;100760.31;5065155;28;20040;-33
2022/11/15 03:07:24;;;;;;;64.05;24.45;;;;;;;8.76;100.00;100754.53;5062710;28;20071;-30
2022/11/15 03:09:55;;;;;;;67.45;23.20;;;;;;;8.98;100.00;100757.19;5049413;28;20491;-28
2022/11/15 03:12:33;;;;;;;64.70;26.90;;;;;;;8.92;100.00;100752.63;5066774;28;20032;-31
2022/11/15 03:14:58;;;;;;;;;;;;;;;8.89;100.00;100766.31;5065672;28;20208;-33
2022/11/15 03:17:35;;;;;;;65.45;25.40;;;;;;;9.04;100.00;100753.75;5066761;28;20505;-29
2022/11/15 03:20:04;;;;;;;65.82;25.98;;;;;;;8.90;100.00;100741.38;5066709;28;20060;-28
2022/11/15 03:22:36;;;;;;;71.45;27.52;;;;;;;9.01;100.00;100754.13;5065020;28;20419;-30
2022/11/15 03:25:05;;;;;;;63.47;25.13;;;;;;;8.89;100.00;100731.72;5069715;28;20055;-30
2022/11/15 03:27:37;;;;;;;58.88;23.13;;;;;;;8.92;100.00;100731.34;5068684;28;20086;-29
2022/11/15 03:30:06;;;;;;;65.10;24.30;;;;;;;8.91;100.00;100729.69;5069394;28;20033;-28
2022/11/15 03:32:38;;;;;;;65.10;24.52;;;;;;;8.90;100.00;100746.69;5068740;28;20554;-29
2022/11/15 03:35:04;;;;;;;68.80;24.48;;;;;;;8.91;100.00;100750.97;5071118;28;20064;-32
2022/11/15 03:37:40;;;;;;;81.68;26.50;;;;;;;8.82;100.00;100745.78;5070396;28;20091;-29
2022/11/15 03:40:06;;;;;;;70.47;24.80;;;;;;;8.95;100.00;100734.47;5070120;28;20769;-29
2022/11/15 03:42:43;;;;;;;73.18;26.48;;;;;;;8.92;100.00;100718.06;5070078;28;20033;-28
2022/11/15 03:45:16;;;;;;;72.35;25.15;;;;;;;8.95;100.00;100734.47;5068882;28;20017;-30
2022/11/15 03:47:49;;;;;;;74.50;25.30;;;;;;;8.98;100.00;100722.59;5080000;28;20055;-28
2022/11/15 03:50:20;;;;;;;78.80;25.83;;;;;;;9.03;100.00;100736.13;5071754;28;20036;-36
2022/11/15 03:52:48;;;;;;;72.55;25.13;;;;;;;8.81;100.00;100720.22;5090266;28;20028;-31
2022/11/15 03:55:18;;;;;;;73.18;25.38;;;;;;;8.75;100.00;100707.69;5071986;28;20028;-29
2022/11/15 03:57:44;;;;;;;68.68;24.05;;;;;;;8.94;100.00;100732.81;5071830;28;20679;-28
2022/11/15 04:00:10;;;;;;;63.08;22.90;;;;;;;8.95;100.00;100734.47;5090253;28;20035;-28
2022/11/15 04:02:36;;;;;;;71.20;25.20;;;;;;;8.91;100.00;100711.06;5090074;28;20031;-28
2022/11/15 04:05:02;;;;;;;73.78;25.88;;;;;;;8.95;100.00;100722.97;5089946;28;20024;-29
2022/11/15 04:07:27;;;;;;;72.20;25.17;;;;;;;9.19;100.00;100703.97;5071303;28;20480;-33
2022/11/15 04:10:02;;;;;;;69.30;22.33;;;;;;;9.10;100.00;100726.38;5090051;28;20089;-29
2022/11/15 04:12:39;;;;;;;68.72;24.77;;;;;;;9.06;100.00;100730.44;5089613;28;20035;-29
2022/11/15 04:15:13;;;;;;;62.95;22.17;;;;;;;9.18;100.00;100728.09;5071547;28;20032;-29
2022/11/15 04:17:47;;;;;;;62.90;24.48;;;;;;;9.17;100.00;100723.78;5071120;28;20510;-30
2022/11/15 04:25:51;;;;;;;58.03;21.52;;;;;;;9.43;100.00;100715.97;5089627;28;20162;-30
2022/11/15 04:28:16;;;;;;;58.65;23.30;;;;;;;9.40;100.00;100694.25;5071151;28;20031;-31
2022/11/15 04:30:42;;;;;;;56.92;23.27;;;;;;;9.38;100.00;100714.94;5071337;28;20032;-32
2022/11/15 04:33:07;;;;;;;59.38;23.55;;;;;;;9.05;100.00;100692.38;5071218;28;20036;-29
2022/11/15 04:35:32;;;;;;;60.03;22.90;;;;;;;9.22;100.00;100700.88;5070624;28;20031;-33
2022/11/15 04:37:58;;;;;;;57.22;23.08;;;;;;;9.37;100.00;100714.09;5089407;28;20035;-28
2022/11/15 04:40:24;;;;;;;60.53;22.98;;;;;;;9.38;100.00;100718.41;5088995;28;20024;-28
2022/11/15 04:42:49;;;;;;;64.00;24.15;;;;;;;9.19;100.00;100709.28;5089585;28;20028;-28
2022/11/15 04:45:15;;;;;;;60.20;24.23;;;;;;;9.02;100.00;100713.22;5089694;28;20096;-30
2022/11/15 04:47:43;;;;;;;64.05;23.20;;;;;;;9.06;100.00;100714.47;5089047;28;20044;-28
2022/11/15 04:50:08;;;;;;;59.80;22.48;;;;;;;9.12;100.00;100703.06;5089437;28;20035;-32
2022/11/15 04:52:34;;;;;;;67.13;25.83;;;;;;;9.20;100.00;100704.78;5089095;28;20036;-28
2022/11/15 04:54:59;;;;;;;69.97;24.45;;;;;;;9.17;100.00;100711.28;5070562;28;20544;-31
2022/11/15 04:57:25;;;;;;;72.70;25.73;;;;;;;9.03;100.00;100683.78;5089076;28;20785;-28
2022/11/15 04:59:50;;;;;;;73.50;26.27;;;;;;;9.11;100.00;100700.59;5088845;28;20024;-29
2022/11/15 05:02:15;;;;;;;75.85;25.77;;;;;;;9.17;100.00;100705.97;5088804;28;20032;-29
2022/11/15 05:04:41;;;;;;;79.50;28.00;;;;;;;9.39;100.00;100708.56;5088922;28;20127;-36
2022/11/15 05:07:06;;;;;;;79.95;29.27;;;;;;;9.43;100.00;100713.31;5088807;28;20032;-29
2022/11/15 05:09:32;;;;;;;82.90;28.95;;;;;;;9.58;100.00;100699.03;5088401;28;20035;-30
2022/11/15 05:11:57;;;;;;;84.53;30.30;;;;;;;9.36;100.00;100688.50;5070389;28;20040;-29
2022/11/15 05:14:22;;;;;;;82.63;29.92;;;;;;;9.42;100.00;100716.19;5088634;28;20494;-30
2022/11/15 05:16:48;;;;;;;79.80;31.05;;;;;;;9.55;100.00;100708.25;5070302;28;20093;-30
2022/11/15 05:19:13;;;;;;;82.72;27.55;;;;;;;9.38;100.00;100717.59;5089005;28;20028;-28
2022/11/15 05:21:39;;;;;;;75.18;28.88;;;;;;;9.36;100.00;100706.31;5070117;28;20060;-29
2022/11/15 05:24:05;;;;;;;80.65;29.50;;;;;;;9.48;100.00;100709.22;5088350;28;20039;-29
2022/11/15 05:26:30;;;;;;;67.40;29.42;;;;;;;9.37;100.00;100695.44;5088117;28;20039;-29
2022/11/15 05:28:58;;;;;;;69.32;28.80;;;;;;;9.20;100.00;100704.78;5088519;28;20084;-28
2022/11/15 05:31:24;;;;;;;68.13;30.50;;;;;;;9.27;100.00;100715.44;5070046;28;20797;-29
2022/11/15 05:33:51;;;;;;;63.95;29.90;;;;;;;9.33;100.00;100706.69;5088458;28;20039;-32
2022/11/15 05:36:29;;;;;;;56.75;28.40;;;;;;;9.31;100.00;100706.06;5088273;28;20059;-35
2022/11/15 05:38:54;;;;;;;54.88;28.77;;;;;;;9.31;100.00;100695.41;5070102;28;20124;-28
2022/11/15 05:41:25;;;;;;;55.53;28.30;;;;;;;9.47;100.00;100720.91;5070129;28;20073;-31
2022/11/15 05:43:51;;;;;;;64.38;29.52;;;;;;;9.38;100.00;100712.28;5088065;28;20076;-30
2022/11/15 05:46:17;;;;;;;60.85;29.40;;;;;;;9.51;100.00;100712.34;5069435;28;20036;-30
2022/11/15 05:48:47;;;;;;;56.55;28.88;;;;;;;9.47;100.00;100711.09;5086949;28;20094;-29
2022/11/15 05:51:17;;;;;;;60.00;28.90;;;;;;;9.42;100.00;100724.16;5069514;28;20480;-30
2022/11/15 05:53:44;;;;;;;61.10;29.83;;;;;;;9.55;100.00;100724.25;5069772;28;20097;-31
2022/11/15 05:56:10;;;;;;;59.53;28.33;;;;;;;9.51;100.00;100725.66;5087940;28;20461;-28
2022/11/15 05:58:37;;;;;;;57.42;29.20;;;;;;;9.48;100.00;100717.22;5069592;28;20032;-28
2022/11/15 06:01:02;;;;;;;52.55;27.17;;;;;;;9.52;100.00;100723.78;5052824;28;20581;-31
2022/11/15 06:03:28;;;;;;;61.28;28.88;;;;;;;9.21;100.00;100707.25;5072235;28;20084;-31
2022/11/15 06:05:53;;;;;;;56.13;28.20;;;;;;;9.42;100.00;100724.16;5067192;28;20036;-29
2022/11/15 06:08:19;;;;;;;52.50;27.52;;;;;;;9.29;100.00;100687.63;5067147;28;20039;-32
2022/11/15 06:10:44;;;;;;;53.55;27.58;;;;;;;9.65;99.50;100734.53;5067134;28;20031;-29
2022/11/15 06:13:10;;;;;;;52.63;25.35;;;;;;;9.51;98.52;100717.66;5065797;28;20036;-31
2022/11/15 06:15:35;;;;;;;56.65;27.05;;;;;;;9.36;99.45;100717.78;5067080;28;20024;-31
2022/11/15 06:18:01;;;;;;;52.22;27.23;;;;;;;9.35;99.95;100718.78;5067273;28;20032;-28
2022/11/15 06:20:29;;;;;;;50.72;26.55;;;;;;;9.50;99.05;100737.34;5048463;28;20023;-29
2022/11/15 06:23:03;;;;;;;58.15;27.88;;;;;;;9.39;100.00;100735.19;5049263;28;20806;-30
2022/11/15 06:25:29;;;;;;;46.97;24.27;;;;;;;9.31;99.27;100730.84;5049110;28;20121;-29
2022/11/15 06:27:56;;;;;;;47.30;25.63;;;;;;;9.23;100.00;100736.31;5049020;28;20036;-29
2022/11/15 06:30:23;;;;;;;52.55;26.30;;;;;;;9.12;99.90;100719.03;5066894;28;20033;-32
2022/11/15 06:32:49;;;;;;;47.72;24.30;;;;;;;9.27;99.96;100740.22;5048791;28;20044;-28
2022/11/15 06:35:14;;;;;;;47.17;25.30;;;;;;;9.15;98.82;100715.97;5067075;28;20036;-28
2022/11/15 06:37:41;;;;;;;41.55;21.30;;;;;;;9.32;96.64;100735.16;5066778;28;20032;-29
2022/11/15 06:40:08;;;;;;;40.92;21.60;;;;;;;9.17;97.71;100743.22;5066199;28;20086;-29
2022/11/15 06:42:33;;;;;;;40.15;21.70;;;;;;;9.33;96.18;100726.13;5048516;28;20087;-31
2022/11/15 06:44:59;;;;;;;40.20;21.60;;;;;;;9.44;94.95;100732.78;5066897;28;20029;-32
2022/11/15 06:47:24;;;;;;;40.22;22.88;;;;;;;9.34;95.36;100735.78;5081085;28;20048;-29
2022/11/15 06:49:49;;;;;;;47.97;24.55;;;;;;;9.34;94.09;100730.47;5086818;28;20028;-29
2022/11/15 06:52:18;;;;;;;40.45;22.85;;;;;;;9.31;93.29;100738.00;5086587;28;20041;-29
2022/11/15 06:54:43;;;;;;;;;;;;;;;9.35;93.21;100740.06;5087350;28;20024;-30
2022/11/15 06:57:09;;;;;;;37.00;23.33;;;;;;;9.31;93.33;100717.53;5087164;28;19916;-31
2022/11/15 06:59:34;;;;;;;38.15;22.15;;;;;;;9.39;94.37;100732.53;5086394;28;20034;-29
2022/11/15 07:01:59;;;;;;;39.83;22.10;;;;;;;9.41;94.54;100733.16;5086613;28;20034;-32
2022/11/15 07:04:25;;;;;;;34.33;18.75;;;;;;;9.54;92.31;100722.59;5086471;28;20036;-28
2022/11/15 07:06:50;;;;;;;36.72;20.77;;;;;;;9.59;93.58;100722.81;5086808;28;20020;-33
2022/11/15 07:09:16;;;;;;;33.03;19.20;;;;;;;9.51;93.97;100709.66;5086450;28;20492;-28
2022/11/15 07:11:41;;;;;;;35.80;19.33;;;;;;;9.64;94.18;100700.94;5086837;28;20024;-29
2022/11/15 07:14:07;;;;;;;39.05;18.90;;;;;;;9.68;93.89;100696.03;5068213;28;20020;-29
2022/11/15 07:16:32;;;;;;;34.58;18.67;;;;;;;9.74;91.69;100700.56;5068090;28;20032;-28
2022/11/15 07:18:58;;;;;;;37.13;20.08;;;;;;;9.84;93.06;100706.34;5087137;28;20028;-30
2022/11/15 07:21:23;;;;;;;37.17;19.73;;;;;;;9.92;91.89;100719.50;5086481;28;20063;-28
2022/11/15 07:23:49;;;;;;;34.05;18.08;;;;;;;9.81;91.39;100718.25;5087032;28;20131;-29
2022/11/15 07:26:14;;;;;;;35.15;19.15;;;;;;;9.78;91.40;100689.31;5068014;28;20119;-32
2022/11/15 07:28:39;;;;;;;30.00;16.58;;;;;;;9.77;89.14;100702.84;5086345;28;20403;-33
2022/11/15 07:31:07;;;;;;;30.70;17.98;;;;;;;9.88;87.59;100717.44;5086264;28;20069;-29
2022/11/15 07:33:33;;;;;;;32.30;17.63;;;;;;;9.76;89.37;100725.97;5068169;28;20047;-30
2022/11/15 07:36:01;;;;;;;34.33;18.83;;;;;;;9.67;89.09;100724.50;5068032;28;20252;-27
2022/11/15 07:38:26;;;;;;;;;;;;;;;9.70;90.97;100725.97;5086829;28;20483;-32
2022/11/15 07:41:01;;;;;;;33.45;17.95;;;;;;;9.84;89.99;100723.16;5085091;28;19981;-29
2022/11/15 07:43:28;;;;;;;32.55;17.58;;;;;;;9.74;89.85;100724.53;5067973;28;20020;-29
2022/11/15 07:45:54;;;;;;;33.00;17.92;;;;;;;9.89;88.12;100725.25;5067796;28;20028;-28
2022/11/15 07:48:19;;;;;;;32.45;17.23;;;;;;;9.79;88.17;100696.31;5085757;28;20101;-31
2022/11/15 07:50:45;;;;;;;32.03;19.17;;;;;;;9.92;87.70;100708.03;5085078;28;20036;-31
2022/11/15 07:53:10;;;;;;;31.92;17.88;;;;;;;9.96;88.41;100722.59;5086327;28;20399;-31
2022/11/15 07:55:36;;;;;;;37.17;18.73;;;;;;;10.03;88.54;100721.63;5086642;28;20028;-28
2022/11/15 07:58:10;;;;;;;34.75;18.58;;;;;;;10.01;88.53;100706.81;5067979;28;20086;-28
2022/11/15 08:00:37;;;;;;;31.15;17.38;;;;;;;9.96;88.11;100703.94;5085134;28;20028;-27
2022/11/15 08:03:07;;;;;;;33.38;18.27;;;;;;;10.25;88.26;100719.63;5084863;28;20499;-29
2022/11/15 08:05:34;;;;;;;32.47;18.05;;;;;;;10.26;88.33;100693.81;5086413;28;20030;-28
2022/11/15 08:08:00;;;;;;;31.83;17.52;;;;;;;10.24;87.76;100706.50;5067823;28;20024;-33
2022/11/15 08:10:27;;;;;;;29.20;16.50;;;;;;;10.54;86.46;100722.19;5086049;28;20372;-30
2022/11/15 08:13:04;;;;;;;31.02;18.40;;;;;;;10.66;84.58;100720.56;5089887;28;20043;-29
2022/11/15 08:15:31;;;;;;;32.00;18.30;;;;;;;10.45;85.69;100703.72;5071213;28;20035;-29
2022/11/15 08:17:58;;;;;;;30.15;19.02;;;;;;;10.69;83.88;100709.50;5088286;28;20031;-29
2022/11/15 08:20:25;;;;;;;30.38;17.80;;;;;;;10.63;84.67;100715.66;5071075;28;20047;-29
2022/11/15 08:22:51;;;;;;;32.85;19.17;;;;;;;10.82;83.41;100714.84;5071229;28;20028;-32
2022/11/15 08:25:16;;;;;;;30.67;18.48;;;;;;;10.85;82.93;100706.44;5070925;28;20035;-29
2022/11/15 08:27:42;;;;;;;32.28;18.30;;;;;;;10.84;85.21;100704.78;5089379;28;20028;-31
2022/11/15 08:30:08;;;;;;;32.28;19.42;;;;;;;10.68;86.53;100701.69;5089579;28;20063;-31
2022/11/15 08:32:34;;;;;;;32.97;17.33;;;;;;;10.91;85.04;100703.97;5089203;28;20039;-28
2022/11/15 08:34:59;;;;;;;34.38;19.77;;;;;;;11.26;82.88;100707.25;5089131;28;20036;-29
2022/11/15 08:37:25;;;;;;;30.40;18.00;;;;;;;11.11;84.56;100691.41;5087873;28;20418;-35
2022/11/15 08:39:50;;;;;;;30.77;18.83;;;;;;;11.11;84.49;100693.28;5089023;28;20110;-28
2022/11/15 08:42:16;;;;;;;33.42;19.02;;;;;;;11.42;83.48;100705.97;5088728;28;20039;-31
2022/11/15 08:44:42;;;;;;;29.98;17.92;;;;;;;11.36;82.70;100690.78;5089222;28;20471;-30
2022/11/15 08:47:11;;;;;;;28.50;17.25;;;;;;;11.56;82.32;100696.88;5088813;28;20044;-28
2022/11/15 08:49:36;;;;;;;32.25;17.95;;;;;;;11.76;79.84;100685.31;5070637;28;20043;-32
2022/11/15 08:52:02;;;;;;;33.22;19.63;;;;;;;11.83;79.50;100676.25;5088778;28;20028;-33
2022/11/15 08:54:27;;;;;;;29.17;17.73;;;;;;;11.81;80.08;100686.34;5088526;28;20123;-30
2022/11/15 08:56:53;;;;;;;32.28;17.38;;;;;;;11.64;82.07;100679.81;5088905;28;20027;-30
2022/11/15 08:59:18;;;;;;;29.35;17.70;;;;;;;11.90;79.50;100686.13;5070593;28;20498;-28
2022/11/15 09:01:44;;;;;;;29.75;18.42;;;;;;;11.91;80.69;100679.75;5088910;28;20475;-28
2022/11/15 09:04:09;;;;;;;30.13;18.73;;;;;;;12.14;78.02;100671.22;5070396;28;20043;-28
2022/11/15 09:06:34;;;;;;;31.30;18.13;;;;;;;12.01;78.66;100648.03;5088623;28;20422;-31
2022/11/15 09:09:01;;;;;;;33.42;19.05;;;;;;;12.00;78.55;100644.53;5069989;28;20032;-29
2022/11/15 09:11:26;;;;;;;28.17;17.45;;;;;;;12.03;78.47;100636.09;5070016;28;20081;-36
2022/11/15 09:13:52;;;;;;;33.20;17.98;;;;;;;12.11;78.33;100652.91;5087161;28;20024;-30
2022/11/15 09:16:18;;;;;;;33.17;18.95;;;;;;;12.35;77.41;100654.81;5070388;28;20036;-31
2022/11/15 09:18:43;;;;;;;31.13;18.65;;;;;;;11.99;80.26;100628.72;5087088;28;20483;-29
2022/11/15 09:21:09;;;;;;;32.45;18.83;;;;;;;12.11;80.53;100647.56;5070180;28;20074;-34
2022/11/15 09:23:34;;;;;;;34.40;19.25;;;;;;;12.33;79.79;100632.81;5086558;28;20043;-32
2022/11/15 09:26:02;;;;;;;29.55;19.58;;;;;;;12.56;79.35;100639.44;5088061;28;20783;-28
2022/11/15 09:28:28;;;;;;;28.38;17.92;;;;;;;12.48;76.85;100631.69;5087754;28;20055;-36
2022/11/15 09:30:59;;;;;;;35.45;18.65;;;;;;;12.38;76.66;100622.31;5069899;28;20071;-30
2022/11/15 09:33:25;;;;;;;32.20;19.20;;;;;;;12.41;76.81;100627.19;5086738;28;20111;-30
2022/11/15 09:35:50;;;;;;;30.27;18.38;;;;;;;12.50;78.39;100603.66;5069693;28;20127;-29
2022/11/15 09:38:17;;;;;;;33.15;19.27;;;;;;;12.67;77.26;100620.03;5087709;28;20060;-32
2022/11/15 09:40:42;;;;;;;31.27;19.92;;;;;;;12.61;77.39;100596.81;5086587;28;20089;-29
2022/11/15 09:43:26;;;;;;;32.08;18.80;;;;;;;12.67;77.34;100612.00;5088356;28;20028;-29
2022/11/15 09:46:09;;;;;;;35.13;21.20;;;;;;;13.02;77.28;100612.28;5087769;28;20578;-28
2022/11/15 09:48:48;;;;;;;34.95;21.08;;;;;;;13.22;76.13;100601.34;5068987;28;20056;-30
2022/11/15 09:51:25;;;;;;;36.40;20.25;;;;;;;13.01;75.57;100607.13;5069134;28;20059;-31
2022/11/15 09:54:05;;;;;;;33.53;20.33;;;;;;;13.13;76.97;100602.69;5070743;28;20025;-29
2022/11/15 09:56:35;;;;;;;31.60;19.73;;;;;;;12.73;76.01;100581.69;5049031;28;20031;-29
2022/11/15 09:59:06;;;;;;;34.30;19.50;;;;;;;13.14;76.00;100590.13;5048755;28;20555;-29
2022/11/15 10:01:54;;;;;;;35.72;20.42;;;;;;;13.12;75.91;100581.47;5085273;28;20028;-28
2022/11/15 10:04:21;;;;;;;34.42;20.63;;;;;;;13.36;73.29;100563.72;5081952;28;20123;-33
2022/11/15 10:06:57;;;;;;;32.33;19.95;;;;;;;13.33;72.68;100565.00;5107778;28;20021;-30
2022/11/15 10:09:35;;;;;;;34.03;20.48;;;;;;;13.50;74.54;100542.94;5106220;28;20032;-33
2022/11/15 10:12:01;;;;;;;;;;;;;;;13.73;74.83;100566.31;5107175;28;20472;-28
2022/11/15 10:14:30;;;;;;;40.00;21.90;;;;;;;13.66;72.49;100563.75;5105162;28;19919;-30
2022/11/15 10:17:14;;;;;;;36.28;20.80;;;;;;;13.58;76.04;100562.19;5089025;28;20569;-32
2022/11/15 10:20:05;;;;;;;33.72;20.00;;;;;;;13.45;75.90;100557.81;5107432;28;20034;-29
2022/11/15 10:22:47;;;;;;;32.55;19.80;;;;;;;13.70;72.96;100556.06;5088697;28;20100;-28
2022/11/15 10:25:19;;;;;;;33.03;20.27;;;;;;;13.91;73.67;100549.38;5088819;28;20024;-31
2022/11/15 10:27:58;;;;;;;34.50;19.08;;;;;;;14.09;71.38;100552.00;5107072;28;20032;-30
2022/11/15 10:30:30;;;;;;;35.25;20.95;;;;;;;14.11;73.59;100549.88;5106811;28;20020;-29
2022/11/15 10:32:56;;;;;;;38.78;20.33;;;;;;;14.05;74.01;100532.84;5106936;28;20035;-33
2022/11/15 10:35:29;;;;;;;35.50;20.65;;;;;;;14.29;73.56;100540.13;5106835;28;20137;-36
2022/11/15 10:38:07;;;;;;;34.25;20.23;;;;;;;14.57;70.27;100553.72;5087180;28;20137;-32
2022/11/15 10:40:33;;;;;;;33.65;21.10;;;;;;;14.40;70.29;100547.38;5088440;28;20080;-29
2022/11/15 10:43:10;;;;;;;35.13;20.63;;;;;;;14.64;69.71;100526.75;5106563;28;20749;-32
2022/11/15 10:45:38;;;;;;;38.90;20.27;;;;;;;15.29;67.43;100543.69;5088664;28;20030;-29
2022/11/15 10:48:12;;;;;;;39.50;21.37;;;;;;;15.73;66.02;100538.63;5106574;28;20419;-31
2022/11/15 10:50:39;;;;;;;33.10;21.58;;;;;;;16.01;64.43;100522.44;5094093;28;20028;-29
2022/11/15 10:53:20;;;;;;;34.67;21.57;;;;;;;16.06;64.83;100533.31;5068186;28;20089;-31
2022/11/15 10:55:48;;;;;;;34.88;21.83;;;;;;;15.58;67.23;100510.38;5070415;28;20028;-29
2022/11/15 10:58:31;;;;;;;36.45;22.45;;;;;;;15.59;67.22;100530.00;5066329;28;20549;-36
2022/11/15 11:01:12;;;;;;;35.25;21.50;;;;;;;15.32;69.65;100505.59;5047994;28;20178;-29
2022/11/15 11:03:40;;;;;;;36.35;23.27;;;;;;;15.63;69.37;100515.03;5048131;28;20085;-30
2022/11/15 11:06:11;;;;;;;39.55;23.75;;;;;;;15.52;70.49;100511.34;5066513;28;20048;-29
2022/11/15 11:08:37;;;;;;;36.88;22.17;;;;;;;15.41;68.92;100501.47;5048068;28;20481;-28
2022/11/15 11:11:04;;;;;;;39.55;23.30;;;;;;;15.02;69.48;100501.25;5066272;28;20065;-30
2022/11/15 11:13:30;;;;;;;38.08;23.42;;;;;;;14.65;73.28;100502.38;5047846;28;20416;-30
2022/11/15 11:16:13;;;;;;;40.40;24.58;;;;;;;14.50;72.85;100503.84;5066050;28;20035;-29
2022/11/15 11:18:51;;;;;;;41.33;24.92;;;;;;;14.51;72.50;100497.44;5047994;28;20036;-29
2022/11/15 11:21:43;;;;;;;;;;;;;;;14.65;73.90;100486.25;5048623;28;20033;-28
2022/11/15 11:24:29;;;;;;;38.10;22.33;;;;;;;14.59;72.65;100470.28;5044755;28;20383;-31
2022/11/15 11:27:19;;;;;;;35.80;23.60;;;;;;;14.83;73.66;100479.09;5047894;28;20039;-28
2022/11/15 11:30:07;;;;;;;40.72;23.83;;;;;;;14.69;72.17;100486.59;5048273;28;20575;-31